Terminal Aerodrome Forecast
Issued by NWS

Home | Current Version | Previous Version | Text Only | Print | Product List | Glossary On
Versions: 1 2 3 4 5 6 7 8 9 10 11 12 13 14 15 16 17 18 19 20 21 22 23 24 25 26 27 28 29
000
FTUS46 KPDT 242119 AAB
TAFPSC
TAF AMD
KPSC 242119Z 2421/2518 33005KT P6SM OVC015
     FM250400 VRB04KT 5SM BR OVC012
     FM251200 VRB04KT 3SM BR OVC008=

USA.gov is the U.S. government's official web portal to all federal, state and local government web resources and services.